sensor_id;sensor_type;location;lat;lon;timestamp;pressure;altitude;pressure_sealevel;temperature;humidity
20027;BME280;10174;42.688;23.344;2022-07-09T00:01:15;95229.16;;;17.01;86.05
20027;BME280;10174;42.688;23.344;2022-07-09T00:03:40;95222.91;;;17.01;86.07
20027;BME280;10174;42.688;23.344;2022-07-09T00:06:06;95194.63;;;16.79;85.78
20027;BME280;10174;42.688;23.344;2022-07-09T00:08:31;95193.59;;;16.75;85.79
20027;BME280;10174;42.688;23.344;2022-07-09T00:10:57;95208.19;;;16.79;86.37
20027;BME280;10174;42.688;23.344;2022-07-09T00:13:22;95108.78;;;16.10;85.75
20027;BME280;10174;42.688;23.344;2022-07-09T00:15:47;95205.78;;;16.64;85.22
20027;BME280;10174;42.688;23.344;2022-07-09T00:18:13;95219.75;;;16.71;86.36
20027;BME280;10174;42.688;23.344;2022-07-09T00:20:38;95217.38;;;16.55;86.54
20027;BME280;10174;42.688;23.344;2022-07-09T00:23:04;95206.31;;;16.38;86.75
20027;BME280;10174;42.688;23.344;2022-07-09T00:25:29;95204.22;;;16.35;86.98
20027;BME280;10174;42.688;23.344;2022-07-09T00:27:54;95196.81;;;16.27;87.66
20027;BME280;10174;42.688;23.344;2022-07-09T00:30:20;95140.81;;;16.08;87.06
20027;BME280;10174;42.688;23.344;2022-07-09T00:32:45;95198.38;;;16.55;87.26
20027;BME280;10174;42.688;23.344;2022-07-09T00:35:11;95201.41;;;16.40;87.10
20027;BME280;10174;42.688;23.344;2022-07-09T00:37:36;95201.09;;;16.28;87.10
20027;BME280;10174;42.688;23.344;2022-07-09T00:40:02;95195.31;;;16.20;87.15
20027;BME280;10174;42.688;23.344;2022-07-09T00:42:27;95176.41;;;16.01;87.57
20027;BME280;10174;42.688;23.344;2022-07-09T00:44:53;95196.28;;;16.25;87.39
20027;BME280;10174;42.688;23.344;2022-07-09T00:47:18;95202.31;;;16.21;87.23
20027;BME280;10174;42.688;23.344;2022-07-09T00:49:44;95097.94;;;15.68;87.92
20027;BME280;10174;42.688;23.344;2022-07-09T00:52:12;95204.44;;;16.38;88.42
20027;BME280;10174;42.688;23.344;2022-07-09T00:54:39;95181.22;;;16.18;88.29
20027;BME280;10174;42.688;23.344;2022-07-09T00:57:08;95174.00;;;16.28;87.93
20027;BME280;10174;42.688;23.344;2022-07-09T00:59:35;95198.31;;;16.33;88.22
20027;BME280;10174;42.688;23.344;2022-07-09T01:02:01;95192.78;;;16.24;87.77
20027;BME280;10174;42.688;23.344;2022-07-09T01:04:27;95159.25;;;16.06;88.40
20027;BME280;10174;42.688;23.344;2022-07-09T01:06:52;95173.94;;;16.19;89.05
20027;BME280;10174;42.688;23.344;2022-07-09T01:09:18;95172.22;;;16.09;88.13
20027;BME280;10174;42.688;23.344;2022-07-09T01:11:43;95166.00;;;16.09;87.97
20027;BME280;10174;42.688;23.344;2022-07-09T01:14:08;95180.03;;;16.25;87.91
20027;BME280;10174;42.688;23.344;2022-07-09T01:16:35;95171.22;;;16.05;88.33
20027;BME280;10174;42.688;23.344;2022-07-09T01:19:02;95165.38;;;15.98;87.73
20027;BME280;10174;42.688;23.344;2022-07-09T01:21:28;95174.00;;;16.00;87.50
20027;BME280;10174;42.688;23.344;2022-07-09T01:23:54;95166.00;;;15.95;87.83
20027;BME280;10174;42.688;23.344;2022-07-09T01:26:19;95167.09;;;15.94;88.01
20027;BME280;10174;42.688;23.344;2022-07-09T01:28:46;95156.25;;;15.80;88.16
20027;BME280;10174;42.688;23.344;2022-07-09T01:31:11;95080.06;;;15.26;87.96
20027;BME280;10174;42.688;23.344;2022-07-09T01:33:38;95166.47;;;15.83;88.58
20027;BME280;10174;42.688;23.344;2022-07-09T01:36:03;95156.03;;;15.76;88.82
20027;BME280;10174;42.688;23.344;2022-07-09T01:38:28;95177.84;;;15.85;88.77
20027;BME280;10174;42.688;23.344;2022-07-09T01:40:54;95106.44;;;15.48;88.59
20027;BME280;10174;42.688;23.344;2022-07-09T01:43:19;95175.63;;;15.87;88.81
20027;BME280;10174;42.688;23.344;2022-07-09T01:45:45;95101.72;;;15.40;88.74
20027;BME280;10174;42.688;23.344;2022-07-09T01:48:10;95173.63;;;15.93;88.34
20027;BME280;10174;42.688;23.344;2022-07-09T01:50:35;95165.38;;;15.98;88.38
20027;BME280;10174;42.688;23.344;2022-07-09T01:53:01;95166.59;;;15.92;88.19
20027;BME280;10174;42.688;23.344;2022-07-09T01:55:26;95146.69;;;15.68;88.29
20027;BME280;10174;42.688;23.344;2022-07-09T01:57:51;95165.50;;;15.93;88.91
20027;BME280;10174;42.688;23.344;2022-07-09T02:00:17;95155.59;;;15.69;87.85
20027;BME280;10174;42.688;23.344;2022-07-09T02:02:44;95158.88;;;15.85;88.09
20027;BME280;10174;42.688;23.344;2022-07-09T02:05:09;95161.59;;;15.85;88.09
20027;BME280;10174;42.688;23.344;2022-07-09T02:07:35;95153.69;;;15.70;87.70
20027;BME280;10174;42.688;23.344;2022-07-09T02:10:00;95179.66;;;15.90;88.06
20027;BME280;10174;42.688;23.344;2022-07-09T02:12:26;95147.34;;;15.79;87.86
20027;BME280;10174;42.688;23.344;2022-07-09T02:14:51;95175.13;;;15.99;87.27
20027;BME280;10174;42.688;23.344;2022-07-09T02:17:17;95165.28;;;15.89;87.30
20027;BME280;10174;42.688;23.344;2022-07-09T02:19:42;95177.25;;;15.88;86.76
20027;BME280;10174;42.688;23.344;2022-07-09T02:22:08;95093.13;;;15.38;86.81
20027;BME280;10174;42.688;23.344;2022-07-09T02:24:33;95181.44;;;15.94;86.39
20027;BME280;10174;42.688;23.344;2022-07-09T02:26:59;95187.47;;;15.91;87.22
20027;BME280;10174;42.688;23.344;2022-07-09T02:29:24;95180.44;;;16.04;86.78
20027;BME280;10174;42.688;23.344;2022-07-09T02:31:50;95174.63;;;15.97;86.18
20027;BME280;10174;42.688;23.344;2022-07-09T02:34:15;95176.94;;;16.03;85.84
20027;BME280;10174;42.688;23.344;2022-07-09T02:36:41;95165.88;;;16.00;86.38
20027;BME280;10174;42.688;23.344;2022-07-09T02:39:06;95178.75;;;16.08;85.69
20027;BME280;10174;42.688;23.344;2022-07-09T02:41:32;95188.47;;;16.23;86.58
20027;BME280;10174;42.688;23.344;2022-07-09T02:43:57;95170.63;;;16.08;86.31
20027;BME280;10174;42.688;23.344;2022-07-09T02:46:22;95168.69;;;15.95;85.77
20027;BME280;10174;42.688;23.344;2022-07-09T02:48:48;95189.59;;;16.08;86.27
20027;BME280;10174;42.688;23.344;2022-07-09T02:51:13;95185.25;;;16.07;86.10
20027;BME280;10174;42.688;23.344;2022-07-09T02:53:38;95163.19;;;16.00;86.47
20027;BME280;10174;42.688;23.344;2022-07-09T02:56:04;95185.84;;;16.18;86.18
20027;BME280;10174;42.688;23.344;2022-07-09T02:58:31;95199.28;;;16.09;85.90
20027;BME280;10174;42.688;23.344;2022-07-09T03:00:57;95197.41;;;16.24;86.63
20027;BME280;10174;42.688;23.344;2022-07-09T03:03:22;95183.34;;;16.21;86.04
20027;BME280;10174;42.688;23.344;2022-07-09T03:05:52;95203.91;;;16.36;85.85
20027;BME280;10174;42.688;23.344;2022-07-09T03:08:17;95111.59;;;15.77;85.72
20027;BME280;10174;42.688;23.344;2022-07-09T03:10:43;95191.28;;;16.18;84.87
20027;BME280;10174;42.688;23.344;2022-07-09T03:13:09;95209.94;;;16.19;86.15
20027;BME280;10174;42.688;23.344;2022-07-09T03:15:34;95195.31;;;16.20;86.20
20027;BME280;10174;42.688;23.344;2022-07-09T03:17:59;95178.16;;;15.97;86.91
20027;BME280;10174;42.688;23.344;2022-07-09T03:20:25;95105.16;;;15.59;86.29
20027;BME280;10174;42.688;23.344;2022-07-09T03:22:50;95196.50;;;16.14;85.72
20027;BME280;10174;42.688;23.344;2022-07-09T03:25:16;95193.81;;;16.14;85.66
20027;BME280;10174;42.688;23.344;2022-07-09T03:27:42;95155.75;;;15.92;86.10
20027;BME280;10174;42.688;23.344;2022-07-09T03:30:07;95205.34;;;16.34;86.46
20027;BME280;10174;42.688;23.344;2022-07-09T03:32:33;95176.84;;;16.09;86.05
20027;BME280;10174;42.688;23.344;2022-07-09T03:34:58;95097.34;;;15.58;85.27
20027;BME280;10174;42.688;23.344;2022-07-09T03:37:24;95117.41;;;15.71;85.26
20027;BME280;10174;42.688;23.344;2022-07-09T03:39:50;95178.34;;;16.15;85.35
20027;BME280;10174;42.688;23.344;2022-07-09T03:42:15;95203.63;;;16.38;85.90
20027;BME280;10174;42.688;23.344;2022-07-09T03:44:41;95199.81;;;16.39;85.63
20027;BME280;10174;42.688;23.344;2022-07-09T03:47:06;95189.69;;;16.31;86.78
20027;BME280;10174;42.688;23.344;2022-07-09T03:49:32;95183.34;;;16.21;86.24
20027;BME280;10174;42.688;23.344;2022-07-09T03:51:58;95205.44;;;16.29;85.89
20027;BME280;10174;42.688;23.344;2022-07-09T03:54:24;95185.25;;;16.21;86.41
20027;BME280;10174;42.688;23.344;2022-07-09T03:56:49;95205.03;;;16.21;85.94
20027;BME280;10174;42.688;23.344;2022-07-09T03:59:15;95168.69;;;15.95;86.64
20027;BME280;10174;42.688;23.344;2022-07-09T04:01:40;95209.34;;;16.23;87.08
20027;BME280;10174;42.688;23.344;2022-07-09T04:04:06;95210.13;;;16.09;86.20
20027;BME280;10174;42.688;23.344;2022-07-09T04:06:31;95159.47;;;15.96;86.46
20027;BME280;10174;42.688;23.344;2022-07-09T04:08:57;95205.13;;;16.30;86.78
20027;BME280;10174;42.688;23.344;2022-07-09T04:11:22;95193.69;;;16.19;86.69
20027;BME280;10174;42.688;23.344;2022-07-09T04:13:48;95205.44;;;16.29;86.98
20027;BME280;10174;42.688;23.344;2022-07-09T04:16:14;95204.13;;;16.40;86.50
20027;BME280;10174;42.688;23.344;2022-07-09T04:18:39;95195.28;;;16.34;85.68
20027;BME280;10174;42.688;23.344;2022-07-09T04:21:09;95206.72;;;16.45;85.48
20027;BME280;10174;42.688;23.344;2022-07-09T04:23:34;95214.38;;;16.43;85.80
20027;BME280;10174;42.688;23.344;2022-07-09T04:26:00;95213.66;;;16.37;85.05
20027;BME280;10174;42.688;23.344;2022-07-09T04:28:25;95213.75;;;16.18;84.69
20027;BME280;10174;42.688;23.344;2022-07-09T04:30:51;95229.75;;;16.34;84.84
20027;BME280;10174;42.688;23.344;2022-07-09T04:33:17;95229.81;;;16.29;85.54
20027;BME280;10174;42.688;23.344;2022-07-09T04:35:43;95231.81;;;16.23;84.18
20027;BME280;10174;42.688;23.344;2022-07-09T04:38:11;95191.16;;;16.09;84.72
20027;BME280;10174;42.688;23.344;2022-07-09T04:40:36;95214.38;;;16.29;84.92
20027;BME280;10174;42.688;23.344;2022-07-09T04:43:04;95217.28;;;16.47;85.37
20027;BME280;10174;42.688;23.344;2022-07-09T04:45:29;95198.09;;;16.43;85.73
20027;BME280;10174;42.688;23.344;2022-07-09T04:47:57;95199.38;;;16.46;85.59
20027;BME280;10174;42.688;23.344;2022-07-09T04:50:22;95211.53;;;16.62;84.66
20027;BME280;10174;42.688;23.344;2022-07-09T04:52:48;95193.00;;;16.42;85.45
20027;BME280;10174;42.688;23.344;2022-07-09T04:55:13;95214.44;;;16.52;85.21
20027;BME280;10174;42.688;23.344;2022-07-09T04:57:40;95120.53;;;15.92;85.92
20027;BME280;10174;42.688;23.344;2022-07-09T05:00:06;95186.47;;;16.29;84.39
20027;BME280;10174;42.688;23.344;2022-07-09T05:02:32;95202.63;;;16.34;85.10
20027;BME280;10174;42.688;23.344;2022-07-09T05:04:57;95210.81;;;16.56;85.11
20027;BME280;10174;42.688;23.344;2022-07-09T05:07:22;95194.28;;;16.44;84.96
20027;BME280;10174;42.688;23.344;2022-07-09T05:09:48;95191.09;;;16.28;84.15
20027;BME280;10174;42.688;23.344;2022-07-09T05:12:13;95216.97;;;16.48;85.41
20027;BME280;10174;42.688;23.344;2022-07-09T05:14:39;95198.72;;;16.40;84.20
20027;BME280;10174;42.688;23.344;2022-07-09T05:17:05;95163.38;;;16.17;83.37
20027;BME280;10174;42.688;23.344;2022-07-09T05:19:31;95228.22;;;16.55;83.83
20027;BME280;10174;42.688;23.344;2022-07-09T05:21:57;95232.50;;;16.70;84.99
20027;BME280;10174;42.688;23.344;2022-07-09T05:24:22;95211.16;;;16.41;83.85
20027;BME280;10174;42.688;23.344;2022-07-09T05:26:48;95220.75;;;16.61;84.95
20027;BME280;10174;42.688;23.344;2022-07-09T05:29:14;95156.16;;;15.99;84.76
20027;BME280;10174;42.688;23.344;2022-07-09T05:31:40;95227.22;;;16.51;84.44
20027;BME280;10174;42.688;23.344;2022-07-09T05:34:05;95203.72;;;16.33;83.77
20027;BME280;10174;42.688;23.344;2022-07-09T05:36:31;95244.69;;;16.45;84.08
20027;BME280;10174;42.688;23.344;2022-07-09T05:38:57;95249.09;;;16.41;84.00
20027;BME280;10174;42.688;23.344;2022-07-09T05:41:24;95250.69;;;16.56;83.79
20027;BME280;10174;42.688;23.344;2022-07-09T05:43:50;95225.22;;;16.43;83.82
20027;BME280;10174;42.688;23.344;2022-07-09T05:46:16;95240.47;;;16.53;84.69
20027;BME280;10174;42.688;23.344;2022-07-09T05:48:42;95242.38;;;16.52;84.40
20027;BME280;10174;42.688;23.344;2022-07-09T05:51:07;95241.97;;;16.59;84.22
20027;BME280;10174;42.688;23.344;2022-07-09T05:53:33;95233.81;;;16.73;85.12
20027;BME280;10174;42.688;23.344;2022-07-09T05:55:58;95240.84;;;16.88;83.10
20027;BME280;10174;42.688;23.344;2022-07-09T05:58:23;95217.97;;;16.66;82.85
20027;BME280;10174;42.688;23.344;2022-07-09T06:00:49;95247.88;;;16.61;83.70
20027;BME280;10174;42.688;23.344;2022-07-09T06:03:14;95258.34;;;16.68;83.03
20027;BME280;10174;42.688;23.344;2022-07-09T06:05:40;95202.84;;;16.24;83.17
20027;BME280;10174;42.688;23.344;2022-07-09T06:08:05;95245.28;;;16.56;85.12
20027;BME280;10174;42.688;23.344;2022-07-09T06:10:30;95228.59;;;16.49;84.08
20027;BME280;10174;42.688;23.344;2022-07-09T06:12:56;95216.69;;;16.36;82.59
20027;BME280;10174;42.688;23.344;2022-07-09T06:15:21;95243.88;;;16.59;83.39
20027;BME280;10174;42.688;23.344;2022-07-09T06:17:47;95265.66;;;16.81;82.96
20027;BME280;10174;42.688;23.344;2022-07-09T06:20:15;95212.34;;;16.49;83.38
20027;BME280;10174;42.688;23.344;2022-07-09T06:22:41;95268.56;;;16.71;83.78
20027;BME280;10174;42.688;23.344;2022-07-09T06:25:07;95257.72;;;16.71;83.99
20027;BME280;10174;42.688;23.344;2022-07-09T06:27:34;95179.53;;;16.23;83.46
20027;BME280;10174;42.688;23.344;2022-07-09T06:30:00;95246.06;;;16.56;82.59
20027;BME280;10174;42.688;23.344;2022-07-09T06:32:25;95274.38;;;16.64;82.68
20027;BME280;10174;42.688;23.344;2022-07-09T06:34:51;95240.06;;;16.46;82.69
20027;BME280;10174;42.688;23.344;2022-07-09T06:37:16;95261.53;;;16.70;83.05
20027;BME280;10174;42.688;23.344;2022-07-09T06:39:42;95270.97;;;16.72;83.34
20027;BME280;10174;42.688;23.344;2022-07-09T06:42:10;95250.09;;;16.59;82.63
20027;BME280;10174;42.688;23.344;2022-07-09T06:44:36;95275.81;;;16.62;83.65
20027;BME280;10174;42.688;23.344;2022-07-09T06:47:02;95272.81;;;16.63;84.05
20027;BME280;10174;42.688;23.344;2022-07-09T06:49:27;95181.03;;;16.01;82.76
20027;BME280;10174;42.688;23.344;2022-07-09T06:51:53;95269.34;;;16.85;82.39
20027;BME280;10174;42.688;23.344;2022-07-09T06:54:18;95247.28;;;16.78;81.47
20027;BME280;10174;42.688;23.344;2022-07-09T06:56:44;95145.09;;;16.09;81.69
20027;BME280;10174;42.688;23.344;2022-07-09T06:59:09;95266.66;;;16.58;82.13
20027;BME280;10174;42.688;23.344;2022-07-09T07:01:34;95263.03;;;16.76;82.03
20027;BME280;10174;42.688;23.344;2022-07-09T07:04:00;95261.94;;;16.63;82.54
20027;BME280;10174;42.688;23.344;2022-07-09T07:06:25;95252.50;;;16.61;82.79
20027;BME280;10174;42.688;23.344;2022-07-09T07:08:51;95182.44;;;16.12;82.92
20027;BME280;10174;42.688;23.344;2022-07-09T07:11:16;95249.09;;;16.55;83.35
20027;BME280;10174;42.688;23.344;2022-07-09T07:13:41;95275.81;;;16.89;82.58
20027;BME280;10174;42.688;23.344;2022-07-09T07:16:07;95254.28;;;16.79;81.66
20027;BME280;10174;42.688;23.344;2022-07-09T07:18:32;95268.56;;;16.99;83.71
20027;BME280;10174;42.688;23.344;2022-07-09T07:20:58;95250.00;;;17.29;81.60
20027;BME280;10174;42.688;23.344;2022-07-09T07:23:23;95261.34;;;17.53;80.06
20027;BME280;10174;42.688;23.344;2022-07-09T07:25:49;95261.03;;;17.77;78.40
20027;BME280;10174;42.688;23.344;2022-07-09T07:28:14;95243.69;;;17.87;77.32
20027;BME280;10174;42.688;23.344;2022-07-09T07:30:39;95279.75;;;17.79;79.55
20027;BME280;10174;42.688;23.344;2022-07-09T07:33:05;95280.22;;;17.58;79.88
20027;BME280;10174;42.688;23.344;2022-07-09T07:35:30;95195.78;;;17.01;80.50
20027;BME280;10174;42.688;23.344;2022-07-09T07:37:56;95263.31;;;17.39;80.99
20027;BME280;10174;42.688;23.344;2022-07-09T07:40:25;95272.72;;;17.55;80.95
20027;BME280;10174;42.688;23.344;2022-07-09T07:42:50;95276.03;;;17.52;80.54
20027;BME280;10174;42.688;23.344;2022-07-09T07:45:16;95187.41;;;17.34;79.66
20027;BME280;10174;42.688;23.344;2022-07-09T07:47:41;95284.75;;;17.86;79.71
20027;BME280;10174;42.688;23.344;2022-07-09T07:50:07;95266.22;;;17.65;79.83
20027;BME280;10174;42.688;23.344;2022-07-09T07:52:32;95257.50;;;17.54;80.63
20027;BME280;10174;42.688;23.344;2022-07-09T07:54:58;95263.38;;;17.48;79.92
20027;BME280;10174;42.688;23.344;2022-07-09T07:57:23;95269.81;;;17.52;81.38
20027;BME280;10174;42.688;23.344;2022-07-09T07:59:49;95260.75;;;17.79;79.84
20027;BME280;10174;42.688;23.344;2022-07-09T08:02:14;95274.25;;;18.24;79.97
20027;BME280;10174;42.688;23.344;2022-07-09T08:04:40;95244.56;;;17.96;79.37
20027;BME280;10174;42.688;23.344;2022-07-09T08:07:05;95269.81;;;18.28;78.99
20027;BME280;10174;42.688;23.344;2022-07-09T08:09:32;95267.69;;;18.65;76.42
20027;BME280;10174;42.688;23.344;2022-07-09T08:11:58;95198.06;;;18.47;75.13
20027;BME280;10174;42.688;23.344;2022-07-09T08:14:24;95206.72;;;18.58;74.56
20027;BME280;10174;42.688;23.344;2022-07-09T08:16:49;95245.69;;;18.93;73.77
20027;BME280;10174;42.688;23.344;2022-07-09T08:19:15;95181.81;;;18.24;75.42
20027;BME280;10174;42.688;23.344;2022-07-09T08:21:41;95234.06;;;17.81;76.27
20027;BME280;10174;42.688;23.344;2022-07-09T08:24:06;95198.22;;;17.48;76.71
20027;BME280;10174;42.688;23.344;2022-07-09T08:26:32;95153.47;;;17.45;76.43
20027;BME280;10174;42.688;23.344;2022-07-09T08:28:58;95267.94;;;18.38;76.15
20027;BME280;10174;42.688;23.344;2022-07-09T08:31:23;95253.34;;;18.25;75.70
20027;BME280;10174;42.688;23.344;2022-07-09T08:33:49;95240.22;;;18.76;74.84
20027;BME280;10174;42.688;23.344;2022-07-09T08:36:15;95254.03;;;19.05;74.49
20027;BME280;10174;42.688;23.344;2022-07-09T08:38:41;95271.03;;;19.37;72.30
20027;BME280;10174;42.688;23.344;2022-07-09T08:41:06;95263.50;;;19.08;72.95
20027;BME280;10174;42.688;23.344;2022-07-09T08:43:33;95246.97;;;18.87;72.37
20027;BME280;10174;42.688;23.344;2022-07-09T08:46:00;95254.66;;;18.85;72.57
20027;BME280;10174;42.688;23.344;2022-07-09T08:48:25;95284.81;;;18.66;72.83
20027;BME280;10174;42.688;23.344;2022-07-09T08:50:51;95260.66;;;18.56;73.74
20027;BME280;10174;42.688;23.344;2022-07-09T08:53:18;95271.00;;;18.85;72.64
20027;BME280;10174;42.688;23.344;2022-07-09T08:55:47;95193.88;;;18.41;73.52
20027;BME280;10174;42.688;23.344;2022-07-09T08:58:13;95238.34;;;18.85;72.53
20027;BME280;10174;42.688;23.344;2022-07-09T09:00:40;95236.75;;;19.01;71.05
20027;BME280;10174;42.688;23.344;2022-07-09T09:03:06;95261.44;;;18.56;74.23
20027;BME280;10174;42.688;23.344;2022-07-09T09:05:32;95248.38;;;18.76;73.07
20027;BME280;10174;42.688;23.344;2022-07-09T09:07:57;95260.38;;;18.75;72.84
20027;BME280;10174;42.688;23.344;2022-07-09T09:10:25;95274.53;;;18.94;74.91
20027;BME280;10174;42.688;23.344;2022-07-09T09:13:01;95268.59;;;19.01;74.45
20027;BME280;10174;42.688;23.344;2022-07-09T09:15:27;95252.38;;;18.78;73.32
20027;BME280;10174;42.688;23.344;2022-07-09T09:17:53;95278.22;;;18.98;73.38
20027;BME280;10174;42.688;23.344;2022-07-09T09:20:19;95263.63;;;18.85;75.06
20027;BME280;10174;42.688;23.344;2022-07-09T09:22:52;95270.91;;;18.67;76.59
20027;BME280;10174;42.688;23.344;2022-07-09T09:25:20;95273.91;;;18.97;74.62
20027;BME280;10174;42.688;23.344;2022-07-09T09:27:53;95207.38;;;18.63;72.55
20027;BME280;10174;42.688;23.344;2022-07-09T09:30:19;95169.97;;;18.11;75.61
20027;BME280;10174;42.688;23.344;2022-07-09T09:32:54;95182.66;;;18.25;75.57
20027;BME280;10174;42.688;23.344;2022-07-09T09:35:20;95254.16;;;18.83;75.00
20027;BME280;10174;42.688;23.344;2022-07-09T09:37:45;95292.50;;;19.21;72.17
20027;BME280;10174;42.688;23.344;2022-07-09T09:40:11;95184.31;;;18.61;68.46
20027;BME280;10174;42.688;23.344;2022-07-09T09:42:41;95184.53;;;18.82;68.18
20027;BME280;10174;42.688;23.344;2022-07-09T09:45:11;95258.72;;;19.31;69.06
20027;BME280;10174;42.688;23.344;2022-07-09T09:47:38;95254.53;;;19.51;66.63
20027;BME280;10174;42.688;23.344;2022-07-09T09:50:03;95259.53;;;19.58;67.39
20027;BME280;10174;42.688;23.344;2022-07-09T09:52:30;95197.53;;;19.20;66.30
20027;BME280;10174;42.688;23.344;2022-07-09T09:54:58;95267.69;;;19.58;67.15
20027;BME280;10174;42.688;23.344;2022-07-09T09:57:25;95283.72;;;19.68;66.97
20027;BME280;10174;42.688;23.344;2022-07-09T09:59:53;95171.75;;;18.91;67.67
20027;BME280;10174;42.688;23.344;2022-07-09T10:02:20;95221.06;;;18.98;68.51
20027;BME280;10174;42.688;23.344;2022-07-09T10:04:46;95284.38;;;19.30;70.00
20027;BME280;10174;42.688;23.344;2022-07-09T10:07:13;95188.16;;;18.60;69.75
20027;BME280;10174;42.688;23.344;2022-07-09T10:09:39;95275.19;;;19.09;70.10
20027;BME280;10174;42.688;23.344;2022-07-09T10:12:06;95260.44;;;18.92;71.13
20027;BME280;10174;42.688;23.344;2022-07-09T10:14:36;95263.59;;;18.77;71.66
20027;BME280;10174;42.688;23.344;2022-07-09T10:17:15;95226.22;;;18.51;70.83
20027;BME280;10174;42.688;23.344;2022-07-09T10:22:33;95286.41;;;18.98;71.30
20027;BME280;10174;42.688;23.344;2022-07-09T10:24:59;95265.44;;;19.08;69.87
20027;BME280;10174;42.688;23.344;2022-07-09T10:27:25;95267.69;;;19.58;68.46
20027;BME280;10174;42.688;23.344;2022-07-09T10:29:58;95256.66;;;19.81;68.40
20027;BME280;10174;42.688;23.344;2022-07-09T10:32:25;95202.16;;;19.46;67.23
20027;BME280;10174;42.688;23.344;2022-07-09T10:35:02;95298.63;;;19.80;68.83
20027;BME280;10174;42.688;23.344;2022-07-09T10:42:37;95219.16;;;19.25;67.56
20027;BME280;10174;42.688;23.344;2022-07-09T10:45:15;95273.00;;;19.46;68.07
20027;BME280;10174;42.688;23.344;2022-07-09T10:47:41;95256.00;;;19.31;69.63
20027;BME280;10174;42.688;23.344;2022-07-09T10:50:07;95277.00;;;18.73;73.07
20027;BME280;10174;42.688;23.344;2022-07-09T10:52:33;95268.44;;;18.48;75.35
20027;BME280;10174;42.688;23.344;2022-07-09T10:54:59;95173.03;;;17.87;74.67
20027;BME280;10174;42.688;23.344;2022-07-09T10:57:24;95262.03;;;18.44;74.82
20027;BME280;10174;42.688;23.344;2022-07-09T10:59:50;95289.72;;;18.46;74.50
20027;BME280;10174;42.688;23.344;2022-07-09T11:02:22;95291.31;;;18.39;75.16
20027;BME280;10174;42.688;23.344;2022-07-09T11:04:51;95299.03;;;18.54;74.60
20027;BME280;10174;42.688;23.344;2022-07-09T11:07:24;95307.78;;;18.11;76.24
20027;BME280;10174;42.688;23.344;2022-07-09T11:09:52;95199.19;;;17.74;75.00
20027;BME280;10174;42.688;23.344;2022-07-09T11:12:18;95307.94;;;18.46;75.31
20027;BME280;10174;42.688;23.344;2022-07-09T11:14:50;95290.56;;;18.24;74.58
20027;BME280;10174;42.688;23.344;2022-07-09T11:17:17;95314.31;;;17.87;76.36
20027;BME280;10174;42.688;23.344;2022-07-09T11:19:43;95310.50;;;17.88;77.13
20027;BME280;10174;42.688;23.344;2022-07-09T11:22:08;95280.38;;;17.76;75.99
20027;BME280;10174;42.688;23.344;2022-07-09T11:24:34;95216.66;;;17.14;76.36
20027;BME280;10174;42.688;23.344;2022-07-09T11:27:07;95287.91;;;17.56;76.56
20027;BME280;10174;42.688;23.344;2022-07-09T11:29:34;95248.06;;;16.92;77.22
20027;BME280;10174;42.688;23.344;2022-07-09T11:32:00;95272.75;;;17.05;77.94
20027;BME280;10174;42.688;23.344;2022-07-09T11:34:27;95286.53;;;16.95;77.44
20027;BME280;10174;42.688;23.344;2022-07-09T11:36:54;95294.75;;;17.17;77.22
20027;BME280;10174;42.688;23.344;2022-07-09T11:41:53;95305.91;;;17.52;75.94
20027;BME280;10174;42.688;23.344;2022-07-09T11:44:39;95305.78;;;17.35;75.97
20027;BME280;10174;42.688;23.344;2022-07-09T11:47:10;95306.69;;;17.16;75.97
20027;BME280;10174;42.688;23.344;2022-07-09T11:49:39;95300.97;;;17.32;75.65
20027;BME280;10174;42.688;23.344;2022-07-09T11:52:25;95291.34;;;17.12;76.71
20027;BME280;10174;42.688;23.344;2022-07-09T11:54:57;95305.22;;;17.47;76.18
20027;BME280;10174;42.688;23.344;2022-07-09T11:57:24;95294.19;;;17.43;75.68
20027;BME280;10174;42.688;23.344;2022-07-09T11:59:49;95278.63;;;16.98;76.73
20027;BME280;10174;42.688;23.344;2022-07-09T12:02:26;95231.38;;;16.85;77.32
20027;BME280;10174;42.688;23.344;2022-07-09T12:04:52;95263.63;;;17.01;76.09
20027;BME280;10174;42.688;23.344;2022-07-09T12:07:18;95284.94;;;17.07;76.64
20027;BME280;10174;42.688;23.344;2022-07-09T12:09:43;95247.13;;;17.11;76.67
20027;BME280;10174;42.688;23.344;2022-07-09T12:12:08;95243.94;;;17.32;75.61
20027;BME280;10174;42.688;23.344;2022-07-09T12:14:34;95273.38;;;17.61;74.65
20027;BME280;10174;42.688;23.344;2022-07-09T12:16:59;95234.81;;;17.73;74.26
20027;BME280;10174;42.688;23.344;2022-07-09T12:19:25;95283.41;;;18.28;73.48
20027;BME280;10174;42.688;23.344;2022-07-09T12:21:50;95263.91;;;18.35;72.77
20027;BME280;10174;42.688;23.344;2022-07-09T12:24:16;95255.84;;;18.61;71.42
20027;BME280;10174;42.688;23.344;2022-07-09T12:26:41;95273.16;;;18.25;72.51
20027;BME280;10174;42.688;23.344;2022-07-09T12:29:07;95284.94;;;18.52;72.10
20027;BME280;10174;42.688;23.344;2022-07-09T12:31:32;95163.31;;;17.32;73.06
20027;BME280;10174;42.688;23.344;2022-07-09T12:34:01;95245.41;;;17.83;72.79
20027;BME280;10174;42.688;23.344;2022-07-09T12:36:27;95280.50;;;17.93;73.73
20027;BME280;10174;42.688;23.344;2022-07-09T12:38:52;95252.84;;;17.91;73.60
20027;BME280;10174;42.688;23.344;2022-07-09T12:41:18;95169.81;;;17.54;73.06
20027;BME280;10174;42.688;23.344;2022-07-09T12:43:43;95261.81;;;18.23;72.27
20027;BME280;10174;42.688;23.344;2022-07-09T12:46:08;95267.03;;;18.60;71.53
20027;BME280;10174;42.688;23.344;2022-07-09T12:48:34;95261.28;;;18.21;71.55
20027;BME280;10174;42.688;23.344;2022-07-09T12:50:59;95276.91;;;18.47;70.80
20027;BME280;10174;42.688;23.344;2022-07-09T12:53:25;95251.97;;;18.54;71.14
20027;BME280;10174;42.688;23.344;2022-07-09T12:55:50;95264.72;;;18.36;71.03